sensor_id;sensor_type;location;lat;lon;timestamp;P1;durP1;ratioP1;P2;durP2;ratioP2
69401;SDS011;56589;51.992;5.924;2024-02-26T00:00:34;2.85;;;1.85;;
69401;SDS011;56589;51.992;5.924;2024-02-26T00:03:00;2.97;;;1.92;;
69401;SDS011;56589;51.992;5.924;2024-02-26T00:05:26;4.82;;;2.35;;
69401;SDS011;56589;51.992;5.924;2024-02-26T00:07:55;2.10;;;1.80;;
69401;SDS011;56589;51.992;5.924;2024-02-26T00:10:21;2.03;;;1.70;;
69401;SDS011;56589;51.992;5.924;2024-02-26T00:12:47;2.42;;;2.00;;
69401;SDS011;56589;51.992;5.924;2024-02-26T00:15:13;2.90;;;1.95;;
69401;SDS011;56589;51.992;5.924;2024-02-26T00:17:39;2.60;;;2.40;;
69401;SDS011;56589;51.992;5.924;2024-02-26T00:20:05;4.72;;;2.63;;
69401;SDS011;56589;51.992;5.924;2024-02-26T00:22:33;2.55;;;2.08;;
69401;SDS011;56589;51.992;5.924;2024-02-26T00:25:01;3.35;;;2.38;;
69401;SDS011;56589;51.992;5.924;2024-02-26T00:27:28;2.65;;;2.45;;
69401;SDS011;56589;51.992;5.924;2024-02-26T00:29:54;2.55;;;2.20;;
69401;SDS011;56589;51.992;5.924;2024-02-26T00:32:20;4.55;;;2.60;;
69401;SDS011;56589;51.992;5.924;2024-02-26T00:34:46;3.67;;;2.40;;
69401;SDS011;56589;51.992;5.924;2024-02-26T00:37:12;6.30;;;2.30;;
69401;SDS011;56589;51.992;5.924;2024-02-26T00:39:37;3.50;;;2.20;;
69401;SDS011;56589;51.992;5.924;2024-02-26T00:42:06;5.43;;;2.72;;
69401;SDS011;56589;51.992;5.924;2024-02-26T00:44:32;3.88;;;2.35;;
69401;SDS011;56589;51.992;5.924;2024-02-26T00:46:58;3.80;;;2.53;;
69401;SDS011;56589;51.992;5.924;2024-02-26T00:49:26;3.55;;;2.47;;
69401;SDS011;56589;51.992;5.924;2024-02-26T00:51:52;2.92;;;2.50;;
69401;SDS011;56589;51.992;5.924;2024-02-26T00:54:17;3.47;;;2.55;;
69401;SDS011;56589;51.992;5.924;2024-02-26T00:56:43;2.97;;;2.20;;
69401;SDS011;56589;51.992;5.924;2024-02-26T00:59:12;3.75;;;2.63;;
69401;SDS011;56589;51.992;5.924;2024-02-26T01:01:37;3.58;;;2.30;;
69401;SDS011;56589;51.992;5.924;2024-02-26T01:04:03;2.92;;;2.00;;
69401;SDS011;56589;51.992;5.924;2024-02-26T01:06:29;2.42;;;2.00;;
69401;SDS011;56589;51.992;5.924;2024-02-26T01:08:55;3.40;;;2.03;;
69401;SDS011;56589;51.992;5.924;2024-02-26T01:11:21;3.70;;;2.33;;
69401;SDS011;56589;51.992;5.924;2024-02-26T01:13:46;3.42;;;2.00;;
69401;SDS011;56589;51.992;5.924;2024-02-26T01:16:15;4.35;;;2.30;;
69401;SDS011;56589;51.992;5.924;2024-02-26T01:18:41;11.25;;;2.40;;
69401;SDS011;56589;51.992;5.924;2024-02-26T01:21:06;3.22;;;2.10;;
69401;SDS011;56589;51.992;5.924;2024-02-26T01:23:32;3.97;;;2.10;;
69401;SDS011;56589;51.992;5.924;2024-02-26T01:25:58;2.30;;;1.73;;
69401;SDS011;56589;51.992;5.924;2024-02-26T01:28:24;2.70;;;1.92;;
69401;SDS011;56589;51.992;5.924;2024-02-26T01:30:50;3.70;;;2.50;;
69401;SDS011;56589;51.992;5.924;2024-02-26T01:33:18;3.95;;;1.95;;
69401;SDS011;56589;51.992;5.924;2024-02-26T01:35:44;4.15;;;2.53;;
69401;SDS011;56589;51.992;5.924;2024-02-26T01:38:10;3.90;;;2.47;;
69401;SDS011;56589;51.992;5.924;2024-02-26T01:40:35;4.75;;;2.28;;
69401;SDS011;56589;51.992;5.924;2024-02-26T01:43:01;6.00;;;2.88;;
69401;SDS011;56589;51.992;5.924;2024-02-26T01:45:27;3.70;;;2.58;;
69401;SDS011;56589;51.992;5.924;2024-02-26T01:47:53;6.07;;;2.80;;
69401;SDS011;56589;51.992;5.924;2024-02-26T01:50:24;3.53;;;2.70;;
69401;SDS011;56589;51.992;5.924;2024-02-26T01:52:52;4.35;;;2.80;;
69401;SDS011;56589;51.992;5.924;2024-02-26T01:55:20;3.15;;;2.35;;
69401;SDS011;56589;51.992;5.924;2024-02-26T01:57:49;2.85;;;2.47;;
69401;SDS011;56589;51.992;5.924;2024-02-26T02:00:17;3.00;;;2.17;;
69401;SDS011;56589;51.992;5.924;2024-02-26T02:02:45;3.80;;;2.63;;
69401;SDS011;56589;51.992;5.924;2024-02-26T02:05:12;4.63;;;2.42;;
69401;SDS011;56589;51.992;5.924;2024-02-26T02:07:43;3.92;;;2.15;;
69401;SDS011;56589;51.992;5.924;2024-02-26T02:10:09;3.90;;;2.72;;
69401;SDS011;56589;51.992;5.924;2024-02-26T02:12:35;2.65;;;2.15;;
69401;SDS011;56589;51.992;5.924;2024-02-26T02:15:01;2.47;;;2.17;;
69401;SDS011;56589;51.992;5.924;2024-02-26T02:17:27;3.00;;;2.35;;
69401;SDS011;56589;51.992;5.924;2024-02-26T02:19:53;4.28;;;2.60;;
69401;SDS011;56589;51.992;5.924;2024-02-26T02:22:22;3.30;;;2.50;;
69401;SDS011;56589;51.992;5.924;2024-02-26T02:24:48;3.28;;;2.78;;
69401;SDS011;56589;51.992;5.924;2024-02-26T02:27:14;4.55;;;2.60;;
69401;SDS011;56589;51.992;5.924;2024-02-26T02:29:40;3.50;;;2.50;;
69401;SDS011;56589;51.992;5.924;2024-02-26T02:32:07;2.78;;;2.22;;
69401;SDS011;56589;51.992;5.924;2024-02-26T02:34:34;3.60;;;2.78;;
69401;SDS011;56589;51.992;5.924;2024-02-26T02:37:01;4.50;;;2.78;;
69401;SDS011;56589;51.992;5.924;2024-02-26T02:39:29;4.40;;;3.00;;
69401;SDS011;56589;51.992;5.924;2024-02-26T02:41:55;3.83;;;2.72;;
69401;SDS011;56589;51.992;5.924;2024-02-26T02:44:21;4.68;;;2.33;;
69401;SDS011;56589;51.992;5.924;2024-02-26T02:46:46;4.90;;;3.10;;
69401;SDS011;56589;51.992;5.924;2024-02-26T02:49:12;4.75;;;2.80;;
69401;SDS011;56589;51.992;5.924;2024-02-26T02:51:38;6.10;;;2.95;;
69401;SDS011;56589;51.992;5.924;2024-02-26T02:54:04;3.42;;;2.50;;
69401;SDS011;56589;51.992;5.924;2024-02-26T02:56:33;5.07;;;3.33;;
69401;SDS011;56589;51.992;5.924;2024-02-26T02:59:01;3.88;;;2.67;;
69401;SDS011;56589;51.992;5.924;2024-02-26T03:01:27;4.68;;;2.78;;
69401;SDS011;56589;51.992;5.924;2024-02-26T03:03:53;5.18;;;2.30;;
69401;SDS011;56589;51.992;5.924;2024-02-26T03:06:19;4.10;;;2.60;;
69401;SDS011;56589;51.992;5.924;2024-02-26T03:08:44;4.22;;;2.67;;
69401;SDS011;56589;51.992;5.924;2024-02-26T03:11:12;4.30;;;2.85;;
69401;SDS011;56589;51.992;5.924;2024-02-26T03:13:41;3.67;;;2.65;;
69401;SDS011;56589;51.992;5.924;2024-02-26T03:16:08;3.17;;;2.25;;
69401;SDS011;56589;51.992;5.924;2024-02-26T03:18:34;3.85;;;2.60;;
69401;SDS011;56589;51.992;5.924;2024-02-26T03:21:00;3.92;;;1.90;;
69401;SDS011;56589;51.992;5.924;2024-02-26T03:23:25;2.33;;;2.10;;
69401;SDS011;56589;51.992;5.924;2024-02-26T03:25:51;4.68;;;2.30;;
69401;SDS011;56589;51.992;5.924;2024-02-26T03:28:17;3.25;;;2.17;;
69401;SDS011;56589;51.992;5.924;2024-02-26T03:30:45;3.58;;;2.45;;
69401;SDS011;56589;51.992;5.924;2024-02-26T03:33:11;4.85;;;2.65;;
69401;SDS011;56589;51.992;5.924;2024-02-26T03:35:37;2.67;;;2.05;;
69401;SDS011;56589;51.992;5.924;2024-02-26T03:38:04;3.47;;;2.40;;
69401;SDS011;56589;51.992;5.924;2024-02-26T03:40:29;3.28;;;2.25;;
69401;SDS011;56589;51.992;5.924;2024-02-26T03:42:55;6.95;;;2.40;;
69401;SDS011;56589;51.992;5.924;2024-02-26T03:45:22;5.18;;;2.70;;
69401;SDS011;56589;51.992;5.924;2024-02-26T03:47:50;3.60;;;2.42;;
69401;SDS011;56589;51.992;5.924;2024-02-26T03:50:16;4.15;;;2.80;;
69401;SDS011;56589;51.992;5.924;2024-02-26T03:52:42;4.50;;;2.83;;
69401;SDS011;56589;51.992;5.924;2024-02-26T03:55:08;4.38;;;2.65;;
69401;SDS011;56589;51.992;5.924;2024-02-26T03:57:34;4.80;;;3.42;;
69401;SDS011;56589;51.992;5.924;2024-02-26T04:00:00;3.72;;;2.83;;
69401;SDS011;56589;51.992;5.924;2024-02-26T04:02:26;5.93;;;3.15;;
69401;SDS011;56589;51.992;5.924;2024-02-26T04:04:55;3.85;;;3.00;;
69401;SDS011;56589;51.992;5.924;2024-02-26T04:07:21;4.22;;;3.25;;
69401;SDS011;56589;51.992;5.924;2024-02-26T04:09:47;5.30;;;3.00;;
69401;SDS011;56589;51.992;5.924;2024-02-26T04:12:12;4.40;;;3.50;;
69401;SDS011;56589;51.992;5.924;2024-02-26T04:14:38;4.22;;;3.20;;
69401;SDS011;56589;51.992;5.924;2024-02-26T04:17:04;5.22;;;3.40;;
69401;SDS011;56589;51.992;5.924;2024-02-26T04:19:30;4.90;;;4.00;;
69401;SDS011;56589;51.992;5.924;2024-02-26T04:21:58;5.38;;;3.45;;
69401;SDS011;56589;51.992;5.924;2024-02-26T04:24:25;8.05;;;3.42;;
69401;SDS011;56589;51.992;5.924;2024-02-26T04:26:51;5.63;;;3.50;;
69401;SDS011;56589;51.992;5.924;2024-02-26T04:29:18;4.50;;;3.50;;
69401;SDS011;56589;51.992;5.924;2024-02-26T04:31:44;5.25;;;3.97;;
69401;SDS011;56589;51.992;5.924;2024-02-26T04:34:09;5.35;;;3.70;;
69401;SDS011;56589;51.992;5.924;2024-02-26T04:36:35;5.47;;;3.85;;
69401;SDS011;56589;51.992;5.924;2024-02-26T04:39:04;6.88;;;4.07;;
69401;SDS011;56589;51.992;5.924;2024-02-26T04:41:29;4.43;;;3.67;;
69401;SDS011;56589;51.992;5.924;2024-02-26T04:43:55;6.10;;;3.88;;
69401;SDS011;56589;51.992;5.924;2024-02-26T04:46:21;6.28;;;3.85;;
69401;SDS011;56589;51.992;5.924;2024-02-26T04:48:47;5.03;;;3.55;;
69401;SDS011;56589;51.992;5.924;2024-02-26T04:51:14;4.75;;;3.53;;
69401;SDS011;56589;51.992;5.924;2024-02-26T04:53:40;8.20;;;4.07;;
69401;SDS011;56589;51.992;5.924;2024-02-26T04:56:08;6.43;;;3.92;;
69401;SDS011;56589;51.992;5.924;2024-02-26T04:58:34;5.10;;;3.33;;
69401;SDS011;56589;51.992;5.924;2024-02-26T05:01:00;6.90;;;3.90;;
69401;SDS011;56589;51.992;5.924;2024-02-26T05:03:26;8.23;;;3.90;;
69401;SDS011;56589;51.992;5.924;2024-02-26T05:05:51;6.30;;;3.60;;
69401;SDS011;56589;51.992;5.924;2024-02-26T05:08:17;5.03;;;3.85;;
69401;SDS011;56589;51.992;5.924;2024-02-26T05:10:44;5.55;;;3.45;;
69401;SDS011;56589;51.992;5.924;2024-02-26T05:13:13;6.22;;;4.00;;
69401;SDS011;56589;51.992;5.924;2024-02-26T05:15:39;7.03;;;4.47;;
69401;SDS011;56589;51.992;5.924;2024-02-26T05:18:05;6.97;;;3.85;;
69401;SDS011;56589;51.992;5.924;2024-02-26T05:20:31;6.53;;;4.22;;
69401;SDS011;56589;51.992;5.924;2024-02-26T05:22:58;6.63;;;4.43;;
69401;SDS011;56589;51.992;5.924;2024-02-26T05:25:27;8.43;;;4.03;;
69401;SDS011;56589;51.992;5.924;2024-02-26T05:27:53;5.05;;;3.92;;
69401;SDS011;56589;51.992;5.924;2024-02-26T05:30:22;6.60;;;4.25;;
69401;SDS011;56589;51.992;5.924;2024-02-26T05:32:48;6.22;;;4.22;;
69401;SDS011;56589;51.992;5.924;2024-02-26T05:35:14;6.47;;;4.63;;
69401;SDS011;56589;51.992;5.924;2024-02-26T05:37:40;7.07;;;4.20;;
69401;SDS011;56589;51.992;5.924;2024-02-26T05:40:06;6.85;;;4.65;;
69401;SDS011;56589;51.992;5.924;2024-02-26T05:42:35;6.43;;;4.18;;
69401;SDS011;56589;51.992;5.924;2024-02-26T05:45:00;6.28;;;4.35;;
69401;SDS011;56589;51.992;5.924;2024-02-26T05:47:29;9.60;;;4.53;;
69401;SDS011;56589;51.992;5.924;2024-02-26T05:49:55;5.30;;;3.78;;
69401;SDS011;56589;51.992;5.924;2024-02-26T05:52:21;7.88;;;4.35;;
69401;SDS011;56589;51.992;5.924;2024-02-26T05:54:47;8.63;;;4.53;;
69401;SDS011;56589;51.992;5.924;2024-02-26T05:57:12;6.72;;;3.83;;
69401;SDS011;56589;51.992;5.924;2024-02-26T05:59:38;7.95;;;4.15;;
69401;SDS011;56589;51.992;5.924;2024-02-26T06:02:06;6.15;;;4.30;;
69401;SDS011;56589;51.992;5.924;2024-02-26T06:04:35;5.80;;;4.22;;
69401;SDS011;56589;51.992;5.924;2024-02-26T06:07:01;7.80;;;4.55;;
69401;SDS011;56589;51.992;5.924;2024-02-26T06:09:27;4.70;;;3.30;;
69401;SDS011;56589;51.992;5.924;2024-02-26T06:11:52;5.65;;;3.60;;
69401;SDS011;56589;51.992;5.924;2024-02-26T06:14:18;5.55;;;4.05;;
69401;SDS011;56589;51.992;5.924;2024-02-26T06:16:44;5.78;;;3.80;;
69401;SDS011;56589;51.992;5.924;2024-02-26T06:19:10;7.10;;;4.80;;
69401;SDS011;56589;51.992;5.924;2024-02-26T06:21:38;6.13;;;3.95;;
69401;SDS011;56589;51.992;5.924;2024-02-26T06:24:04;5.80;;;3.80;;
69401;SDS011;56589;51.992;5.924;2024-02-26T06:26:30;5.07;;;3.10;;
69401;SDS011;56589;51.992;5.924;2024-02-26T06:28:56;6.20;;;3.45;;
69401;SDS011;56589;51.992;5.924;2024-02-26T06:31:22;5.93;;;3.80;;
69401;SDS011;56589;51.992;5.924;2024-02-26T06:33:48;6.00;;;3.30;;
69401;SDS011;56589;51.992;5.924;2024-02-26T06:36:15;5.05;;;4.03;;
69401;SDS011;56589;51.992;5.924;2024-02-26T06:38:43;5.20;;;3.47;;
69401;SDS011;56589;51.992;5.924;2024-02-26T06:41:09;6.53;;;4.53;;
69401;SDS011;56589;51.992;5.924;2024-02-26T06:43:35;4.43;;;3.45;;
69401;SDS011;56589;51.992;5.924;2024-02-26T06:46:01;7.15;;;3.80;;
69401;SDS011;56589;51.992;5.924;2024-02-26T06:48:27;5.72;;;3.85;;
69401;SDS011;56589;51.992;5.924;2024-02-26T06:50:53;7.72;;;4.25;;
69401;SDS011;56589;51.992;5.924;2024-02-26T06:53:19;7.28;;;4.55;;
69401;SDS011;56589;51.992;5.924;2024-02-26T06:55:47;7.32;;;4.93;;
69401;SDS011;56589;51.992;5.924;2024-02-26T06:58:13;5.93;;;4.30;;
69401;SDS011;56589;51.992;5.924;2024-02-26T07:00:39;8.38;;;4.82;;
69401;SDS011;56589;51.992;5.924;2024-02-26T07:03:04;7.47;;;4.78;;
69401;SDS011;56589;51.992;5.924;2024-02-26T07:05:30;5.68;;;3.78;;
69401;SDS011;56589;51.992;5.924;2024-02-26T07:07:56;6.35;;;4.57;;
69401;SDS011;56589;51.992;5.924;2024-02-26T07:10:25;7.22;;;4.90;;
69401;SDS011;56589;51.992;5.924;2024-02-26T07:12:53;7.70;;;4.97;;
69401;SDS011;56589;51.992;5.924;2024-02-26T07:15:19;9.50;;;5.35;;
69401;SDS011;56589;51.992;5.924;2024-02-26T07:17:45;8.68;;;5.60;;
69401;SDS011;56589;51.992;5.924;2024-02-26T07:20:11;7.05;;;4.70;;
69401;SDS011;56589;51.992;5.924;2024-02-26T07:22:37;7.03;;;4.53;;
69401;SDS011;56589;51.992;5.924;2024-02-26T07:25:03;8.43;;;5.10;;
69401;SDS011;56589;51.992;5.924;2024-02-26T07:27:30;8.13;;;5.03;;
69401;SDS011;56589;51.992;5.924;2024-02-26T07:30:00;8.18;;;5.43;;
69401;SDS011;56589;51.992;5.924;2024-02-26T07:32:25;11.85;;;5.93;;
69401;SDS011;56589;51.992;5.924;2024-02-26T07:34:51;9.63;;;5.90;;
69401;SDS011;56589;51.992;5.924;2024-02-26T07:37:17;10.60;;;5.68;;
69401;SDS011;56589;51.992;5.924;2024-02-26T07:39:43;9.02;;;5.72;;
69401;SDS011;56589;51.992;5.924;2024-02-26T07:42:09;11.38;;;5.95;;
69401;SDS011;56589;51.992;5.924;2024-02-26T07:44:34;10.65;;;6.28;;
69401;SDS011;56589;51.992;5.924;2024-02-26T07:47:03;12.90;;;7.20;;
69401;SDS011;56589;51.992;5.924;2024-02-26T07:49:29;10.90;;;6.50;;
69401;SDS011;56589;51.992;5.924;2024-02-26T07:51:55;12.00;;;7.35;;
69401;SDS011;56589;51.992;5.924;2024-02-26T07:54:21;12.25;;;7.22;;
69401;SDS011;56589;51.992;5.924;2024-02-26T07:56:47;10.93;;;7.55;;
69401;SDS011;56589;51.992;5.924;2024-02-26T07:59:12;14.30;;;7.97;;
69401;SDS011;56589;51.992;5.924;2024-02-26T08:01:39;12.52;;;8.43;;
69401;SDS011;56589;51.992;5.924;2024-02-26T08:04:08;11.90;;;6.95;;
69401;SDS011;56589;51.992;5.924;2024-02-26T08:06:34;13.60;;;7.93;;
69401;SDS011;56589;51.992;5.924;2024-02-26T08:09:00;13.00;;;8.18;;
69401;SDS011;56589;51.992;5.924;2024-02-26T08:11:26;12.95;;;8.25;;
69401;SDS011;56589;51.992;5.924;2024-02-26T08:13:52;12.35;;;7.38;;
69401;SDS011;56589;51.992;5.924;2024-02-26T08:16:18;14.70;;;8.75;;
69401;SDS011;56589;51.992;5.924;2024-02-26T08:18:44;12.38;;;7.88;;
69401;SDS011;56589;51.992;5.924;2024-02-26T08:21:12;13.65;;;8.00;;
69401;SDS011;56589;51.992;5.924;2024-02-26T08:23:38;11.93;;;6.93;;
69401;SDS011;56589;51.992;5.924;2024-02-26T08:26:04;15.40;;;9.35;;
69401;SDS011;56589;51.992;5.924;2024-02-26T08:28:30;13.70;;;7.82;;
69401;SDS011;56589;51.992;5.924;2024-02-26T08:30:56;11.85;;;7.47;;
69401;SDS011;56589;51.992;5.924;2024-02-26T08:33:22;16.33;;;7.82;;
69401;SDS011;56589;51.992;5.924;2024-02-26T08:35:48;14.45;;;8.05;;
69401;SDS011;56589;51.992;5.924;2024-02-26T08:38:16;14.00;;;8.27;;
69401;SDS011;56589;51.992;5.924;2024-02-26T08:40:42;14.43;;;8.65;;
69401;SDS011;56589;51.992;5.924;2024-02-26T08:43:08;11.30;;;6.75;;
69401;SDS011;56589;51.992;5.924;2024-02-26T08:45:33;15.35;;;8.30;;
69401;SDS011;56589;51.992;5.924;2024-02-26T08:47:59;15.25;;;8.23;;
69401;SDS011;56589;51.992;5.924;2024-02-26T08:50:25;14.23;;;8.63;;
69401;SDS011;56589;51.992;5.924;2024-02-26T08:52:51;13.45;;;7.55;;
69401;SDS011;56589;51.992;5.924;2024-02-26T08:55:19;14.15;;;7.78;;
69401;SDS011;56589;51.992;5.924;2024-02-26T08:57:45;16.27;;;8.98;;
69401;SDS011;56589;51.992;5.924;2024-02-26T09:00:12;14.50;;;8.15;;
69401;SDS011;56589;51.992;5.924;2024-02-26T09:02:39;15.90;;;8.60;;
69401;SDS011;56589;51.992;5.924;2024-02-26T09:05:05;15.70;;;8.90;;
69401;SDS011;56589;51.992;5.924;2024-02-26T09:07:32;16.45;;;8.50;;
69401;SDS011;56589;51.992;5.924;2024-02-26T09:09:58;16.05;;;8.75;;
69401;SDS011;56589;51.992;5.924;2024-02-26T09:12:26;18.17;;;9.77;;
69401;SDS011;56589;51.992;5.924;2024-02-26T09:14:52;18.55;;;9.52;;
69401;SDS011;56589;51.992;5.924;2024-02-26T09:17:18;19.55;;;9.82;;
69401;SDS011;56589;51.992;5.924;2024-02-26T09:19:44;17.13;;;10.25;;
69401;SDS011;56589;51.992;5.924;2024-02-26T09:22:09;18.15;;;9.27;;
69401;SDS011;56589;51.992;5.924;2024-02-26T09:24:35;15.88;;;8.80;;
69401;SDS011;56589;51.992;5.924;2024-02-26T09:27:02;18.52;;;9.18;;
69401;SDS011;56589;51.992;5.924;2024-02-26T09:29:30;17.95;;;9.00;;
69401;SDS011;56589;51.992;5.924;2024-02-26T09:31:56;17.17;;;9.52;;
69401;SDS011;56589;51.992;5.924;2024-02-26T09:34:22;17.05;;;8.57;;
69401;SDS011;56589;51.992;5.924;2024-02-26T09:36:48;18.48;;;9.38;;
69401;SDS011;56589;51.992;5.924;2024-02-26T09:39:14;17.48;;;9.50;;
69401;SDS011;56589;51.992;5.924;2024-02-26T09:41:39;16.83;;;8.68;;
69401;SDS011;56589;51.992;5.924;2024-02-26T09:44:05;20.48;;;9.45;;
69401;SDS011;56589;51.992;5.924;2024-02-26T09:46:34;17.83;;;9.48;;
69401;SDS011;56589;51.992;5.924;2024-02-26T09:49:00;14.50;;;8.00;;
69401;SDS011;56589;51.992;5.924;2024-02-26T09:51:26;17.60;;;9.25;;
69401;SDS011;56589;51.992;5.924;2024-02-26T09:53:52;13.75;;;8.02;;
69401;SDS011;56589;51.992;5.924;2024-02-26T09:56:19;19.98;;;9.23;;
69401;SDS011;56589;51.992;5.924;2024-02-26T09:58:46;14.02;;;8.05;;
69401;SDS011;56589;51.992;5.924;2024-02-26T10:01:16;14.45;;;7.97;;
69401;SDS011;56589;51.992;5.924;2024-02-26T10:03:48;14.70;;;8.75;;
69401;SDS011;56589;51.992;5.924;2024-02-26T10:06:22;15.73;;;8.48;;
69401;SDS011;56589;51.992;5.924;2024-02-26T10:08:51;12.85;;;6.90;;
69401;SDS011;56589;51.992;5.924;2024-02-26T10:11:19;14.15;;;7.53;;
69401;SDS011;56589;51.992;5.924;2024-02-26T10:13:47;14.50;;;7.90;;
69401;SDS011;56589;51.992;5.924;2024-02-26T10:16:13;12.30;;;7.55;;
69401;SDS011;56589;51.992;5.924;2024-02-26T10:18:49;13.13;;;7.10;;
69401;SDS011;56589;51.992;5.924;2024-02-26T10:21:16;13.82;;;8.02;;
69401;SDS011;56589;51.992;5.924;2024-02-26T10:23:45;13.82;;;8.10;;
69401;SDS011;56589;51.992;5.924;2024-02-26T10:26:12;15.55;;;8.52;;
69401;SDS011;56589;51.992;5.924;2024-02-26T10:28:39;11.90;;;6.97;;
69401;SDS011;56589;51.992;5.924;2024-02-26T10:31:07;11.20;;;7.25;;
69401;SDS011;56589;51.992;5.924;2024-02-26T10:33:34;12.82;;;8.15;;
69401;SDS011;56589;51.992;5.924;2024-02-26T10:36:04;13.00;;;7.25;;
69401;SDS011;56589;51.992;5.924;2024-02-26T10:38:32;13.60;;;7.68;;
69401;SDS011;56589;51.992;5.924;2024-02-26T10:41:00;12.57;;;8.23;;
69401;SDS011;56589;51.992;5.924;2024-02-26T10:43:27;14.45;;;8.15;;
69401;SDS011;56589;51.992;5.924;2024-02-26T10:45:54;13.82;;;7.30;;
69401;SDS011;56589;51.992;5.924;2024-02-26T10:48:20;12.82;;;8.05;;
69401;SDS011;56589;51.992;5.924;2024-02-26T10:50:47;15.38;;;8.38;;
69401;SDS011;56589;51.992;5.924;2024-02-26T10:53:19;12.95;;;7.40;;
69401;SDS011;56589;51.992;5.924;2024-02-26T10:55:47;13.30;;;7.72;;
69401;SDS011;56589;51.992;5.924;2024-02-26T10:58:19;11.27;;;7.18;;
69401;SDS011;56589;51.992;5.924;2024-02-26T11:00:46;14.57;;;7.90;;
69401;SDS011;56589;51.992;5.924;2024-02-26T11:03:15;11.70;;;6.63;;
69401;SDS011;56589;51.992;5.924;2024-02-26T11:05:43;11.23;;;6.15;;
69401;SDS011;56589;51.992;5.924;2024-02-26T11:08:11;12.05;;;7.28;;
69401;SDS011;56589;51.992;5.924;2024-02-26T11:10:40;11.93;;;6.93;;
69401;SDS011;56589;51.992;5.924;2024-02-26T11:13:09;13.18;;;7.15;;
69401;SDS011;56589;51.992;5.924;2024-02-26T11:15:39;14.05;;;8.45;;
69401;SDS011;56589;51.992;5.924;2024-02-26T11:18:06;14.90;;;8.40;;
69401;SDS011;56589;51.992;5.924;2024-02-26T11:20:33;13.30;;;7.85;;
69401;SDS011;56589;51.992;5.924;2024-02-26T11:23:05;11.05;;;6.97;;
69401;SDS011;56589;51.992;5.924;2024-02-26T11:25:32;13.73;;;7.68;;
69401;SDS011;56589;51.992;5.924;2024-02-26T11:28:03;14.88;;;7.70;;
69401;SDS011;56589;51.992;5.924;2024-02-26T11:30:35;13.50;;;7.63;;
69401;SDS011;56589;51.992;5.924;2024-02-26T11:33:09;11.38;;;7.35;;
69401;SDS011;56589;51.992;5.924;2024-02-26T11:35:36;11.05;;;7.13;;
69401;SDS011;56589;51.992;5.924;2024-02-26T11:38:02;11.43;;;7.13;;
69401;SDS011;56589;51.992;5.924;2024-02-26T11:40:30;12.45;;;7.07;;
69401;SDS011;56589;51.992;5.924;2024-02-26T11:42:58;10.98;;;6.85;;
69401;SDS011;56589;51.992;5.924;2024-02-26T11:48:25;10.70;;;6.38;;
69401;SDS011;56589;51.992;5.924;2024-02-26T11:50:54;9.90;;;6.18;;
69401;SDS011;56589;51.992;5.924;2024-02-26T11:53:23;10.57;;;6.97;;
69401;SDS011;56589;51.992;5.924;2024-02-26T11:58:53;8.50;;;5.30;;
69401;SDS011;56589;51.992;5.924;2024-02-26T12:01:41;10.60;;;5.85;;
69401;SDS011;56589;51.992;5.924;2024-02-26T12:04:12;8.32;;;5.35;;
69401;SDS011;56589;51.992;5.924;2024-02-26T12:06:45;12.38;;;6.50;;
69401;SDS011;56589;51.992;5.924;2024-02-26T12:12:01;9.15;;;5.55;;
69401;SDS011;56589;51.992;5.924;2024-02-26T12:14:28;8.43;;;5.25;;
69401;SDS011;56589;51.992;5.924;2024-02-26T12:16:56;10.25;;;6.03;;
69401;SDS011;56589;51.992;5.924;2024-02-26T12:19:23;12.23;;;5.70;;
69401;SDS011;56589;51.992;5.924;2024-02-26T12:21:51;10.82;;;5.68;;
69401;SDS011;56589;51.992;5.924;2024-02-26T12:24:18;11.30;;;6.25;;
69401;SDS011;56589;51.992;5.924;2024-02-26T12:26:44;9.32;;;5.05;;
69401;SDS011;56589;51.992;5.924;2024-02-26T12:29:11;9.35;;;5.82;;
69401;SDS011;56589;51.992;5.924;2024-02-26T12:31:37;9.88;;;5.85;;
69401;SDS011;56589;51.992;5.924;2024-02-26T12:34:08;9.82;;;5.65;;
69401;SDS011;56589;51.992;5.924;2024-02-26T12:36:34;10.13;;;5.53;;
69401;SDS011;56589;51.992;5.924;2024-02-26T12:39:01;8.23;;;5.38;;
69401;SDS011;56589;51.992;5.924;2024-02-26T12:41:27;9.73;;;5.45;;
69401;SDS011;56589;51.992;5.924;2024-02-26T12:43:54;7.78;;;4.63;;
69401;SDS011;56589;51.992;5.924;2024-02-26T12:46:20;9.15;;;5.38;;
69401;SDS011;56589;51.992;5.924;2024-02-26T12:48:46;10.73;;;5.47;;
69401;SDS011;56589;51.992;5.924;2024-02-26T12:51:15;8.20;;;5.05;;
69401;SDS011;56589;51.992;5.924;2024-02-26T12:53:42;8.57;;;5.50;;
69401;SDS011;56589;51.992;5.924;2024-02-26T12:56:10;9.45;;;5.82;;
69401;SDS011;56589;51.992;5.924;2024-02-26T12:58:36;8.00;;;5.18;;
69401;SDS011;56589;51.992;5.924;2024-02-26T13:01:04;9.45;;;5.57;;
69401;SDS011;56589;51.992;5.924;2024-02-26T13:03:31;8.27;;;4.93;;
69401;SDS011;56589;51.992;5.924;2024-02-26T13:05:58;9.50;;;6.32;;
69401;SDS011;56589;51.992;5.924;2024-02-26T13:08:31;10.43;;;5.40;;
69401;SDS011;56589;51.992;5.924;2024-02-26T13:10:58;8.60;;;4.95;;
69401;SDS011;56589;51.992;5.924;2024-02-26T13:13:25;8.73;;;5.15;;
69401;SDS011;56589;51.992;5.924;2024-02-26T13:16:00;7.95;;;4.82;;
69401;SDS011;56589;51.992;5.924;2024-02-26T13:18:27;9.07;;;5.72;;
69401;SDS011;56589;51.992;5.924;2024-02-26T13:20:53;8.43;;;5.60;;
69401;SDS011;56589;51.992;5.924;2024-02-26T13:23:19;9.85;;;5.93;;
69401;SDS011;56589;51.992;5.924;2024-02-26T13:25:48;9.23;;;5.93;;
69401;SDS011;56589;51.992;5.924;2024-02-26T13:28:15;11.57;;;6.20;;
69401;SDS011;56589;51.992;5.924;2024-02-26T13:30:49;9.20;;;5.30;;
69401;SDS011;56589;51.992;5.924;2024-02-26T13:33:16;10.13;;;5.13;;
69401;SDS011;56589;51.992;5.924;2024-02-26T13:35:42;7.57;;;4.60;;
69401;SDS011;56589;51.992;5.924;2024-02-26T13:38:07;9.43;;;5.75;;
69401;SDS011;56589;51.992;5.924;2024-02-26T13:40:35;8.20;;;5.57;;
69401;SDS011;56589;51.992;5.924;2024-02-26T13:43:04;9.25;;;5.43;;
69401;SDS011;56589;51.992;5.924;2024-02-26T13:45:30;10.77;;;5.65;;
69401;SDS011;56589;51.992;5.924;2024-02-26T13:48:01;9.65;;;5.63;;
69401;SDS011;56589;51.992;5.924;2024-02-26T13:50:30;9.25;;;5.75;;
69401;SDS011;56589;51.992;5.924;2024-02-26T13:52:56;10.10;;;6.35;;
69401;SDS011;56589;51.992;5.924;2024-02-26T13:55:22;10.23;;;5.93;;
69401;SDS011;56589;51.992;5.924;2024-02-26T13:57:48;7.95;;;5.13;;
69401;SDS011;56589;51.992;5.924;2024-02-26T14:00:17;11.48;;;5.75;;
69401;SDS011;56589;51.992;5.924;2024-02-26T14:02:43;7.90;;;5.43;;
69401;SDS011;56589;51.992;5.924;2024-02-26T14:05:09;7.50;;;4.80;;
69401;SDS011;56589;51.992;5.924;2024-02-26T14:07:35;8.43;;;4.90;;
69401;SDS011;56589;51.992;5.924;2024-02-26T14:10:01;9.18;;;6.15;;
69401;SDS011;56589;51.992;5.924;2024-02-26T14:12:29;8.05;;;5.30;;
69401;SDS011;56589;51.992;5.924;2024-02-26T14:14:55;10.20;;;5.97;;
69401;SDS011;56589;51.992;5.924;2024-02-26T14:17:23;10.20;;;5.60;;
69401;SDS011;56589;51.992;5.924;2024-02-26T14:19:49;9.43;;;5.18;;
69401;SDS011;56589;51.992;5.924;2024-02-26T14:22:15;8.13;;;5.22;;
69401;SDS011;56589;51.992;5.924;2024-02-26T14:24:41;9.18;;;5.38;;
69401;SDS011;56589;51.992;5.924;2024-02-26T14:27:07;10.00;;;6.25;;
69401;SDS011;56589;51.992;5.924;2024-02-26T14:29:35;10.32;;;5.88;;
69401;SDS011;56589;51.992;5.924;2024-02-26T14:32:02;9.30;;;6.15;;
69401;SDS011;56589;51.992;5.924;2024-02-26T14:34:32;9.38;;;5.60;;
69401;SDS011;56589;51.992;5.924;2024-02-26T14:36:58;9.25;;;5.50;;
69401;SDS011;56589;51.992;5.924;2024-02-26T14:39:26;9.35;;;6.05;;
69401;SDS011;56589;51.992;5.924;2024-02-26T14:41:53;8.20;;;5.47;;
69401;SDS011;56589;51.992;5.924;2024-02-26T14:44:19;8.38;;;5.20;;
69401;SDS011;56589;51.992;5.924;2024-02-26T14:46:45;8.90;;;5.40;;
69401;SDS011;56589;51.992;5.924;2024-02-26T14:49:10;7.75;;;5.20;;